createdAt,value
2023-03-02T00:01:25.903Z,75.36
2023-03-02T00:03:53.890Z,75.50
2023-03-02T00:06:21.391Z,75.61
2023-03-02T00:08:48.399Z,76.33
2023-03-02T00:11:15.737Z,76.07
2023-03-02T00:13:43.543Z,76.10
2023-03-02T00:16:10.299Z,75.94
2023-03-02T00:18:37.556Z,75.76
2023-03-02T00:21:04.491Z,75.90
2023-03-02T00:23:31.132Z,75.86
2023-03-02T00:25:57.882Z,75.94
2023-03-02T00:28:24.587Z,75.64
2023-03-02T00:30:51.185Z,75.60
2023-03-02T00:33:19.340Z,75.60
2023-03-02T00:35:46.730Z,75.42
2023-03-02T00:38:13.381Z,75.51
2023-03-02T00:40:45.268Z,75.36
2023-03-02T00:43:12.711Z,75.40
2023-03-02T00:45:39.335Z,75.96
2023-03-02T00:48:06.529Z,75.66
2023-03-02T00:50:38.689Z,75.51
2023-03-02T00:53:05.213Z,75.57
2023-03-02T00:55:32.153Z,75.52
2023-03-02T00:57:58.895Z,75.68
2023-03-02T01:00:28.439Z,75.70
2023-03-02T01:02:57.468Z,75.42
2023-03-02T01:05:24.426Z,75.62
2023-03-02T01:07:51.427Z,75.41
2023-03-02T01:10:18.332Z,75.48
2023-03-02T01:12:45.147Z,75.23
2023-03-02T01:15:12.116Z,75.33
2023-03-02T01:17:40.717Z,75.46
2023-03-02T01:20:08.425Z,75.58
2023-03-02T01:22:38.332Z,75.39
2023-03-02T01:25:06.162Z,75.31
2023-03-02T01:27:32.943Z,75.43
2023-03-02T01:29:59.568Z,75.26
2023-03-02T01:32:26.714Z,75.33
2023-03-02T01:34:54.154Z,75.42
2023-03-02T01:37:22.348Z,75.51
2023-03-02T01:39:50.189Z,75.53
2023-03-02T01:42:17.268Z,75.32
2023-03-02T01:44:46.588Z,75.39
2023-03-02T01:47:16.132Z,75.35
2023-03-02T01:50:02.848Z,75.51
2023-03-02T01:52:37.617Z,75.61
2023-03-02T01:55:08.269Z,75.58
2023-03-02T01:57:42.945Z,75.29
2023-03-02T02:00:14.056Z,75.37
2023-03-02T02:02:41.508Z,75.60
2023-03-02T02:05:15.307Z,75.41
2023-03-02T02:07:43.241Z,75.47
2023-03-02T02:10:11.942Z,75.70
2023-03-02T02:12:38.726Z,75.79
2023-03-02T02:15:06.467Z,75.62
2023-03-02T02:17:34.072Z,75.40
2023-03-02T02:20:23.509Z,75.59
2023-03-02T02:23:18.837Z,75.87
2023-03-02T02:26:34.920Z,75.68
2023-03-02T02:29:05.555Z,75.61
2023-03-02T02:31:35.156Z,75.68
2023-03-02T02:34:41.098Z,75.73
2023-03-02T02:37:14.608Z,75.94
2023-03-02T02:39:45.619Z,76.15
2023-03-02T02:42:19.058Z,76.50
2023-03-02T02:44:47.226Z,77.08
2023-03-02T02:47:20.458Z,77.17
2023-03-02T02:49:51.287Z,77.77
2023-03-02T02:52:21.323Z,78.08
2023-03-02T02:54:51.354Z,78.02
2023-03-02T02:57:21.055Z,78.15
2023-03-02T02:59:50.590Z,78.36
2023-03-02T03:02:24.823Z,78.69
2023-03-02T03:05:02.851Z,78.66
2023-03-02T03:07:32.574Z,78.99
2023-03-02T03:10:18.553Z,79.18
2023-03-02T03:12:46.820Z,79.06
2023-03-02T03:15:15.923Z,78.86
2023-03-02T03:17:56.323Z,79.06
2023-03-02T03:20:24.824Z,79.04
2023-03-02T03:22:55.109Z,79.15
2023-03-02T03:25:27.935Z,79.03
2023-03-02T03:27:54.852Z,79.02
2023-03-02T03:30:22.080Z,78.99
2023-03-02T03:32:49.172Z,79.23
2023-03-02T03:35:16.181Z,79.04
2023-03-02T03:37:42.968Z,79.08
2023-03-02T03:40:10.705Z,79.32
2023-03-02T03:42:39.461Z,79.16
2023-03-02T03:45:08.282Z,79.14
2023-03-02T03:47:36.420Z,79.18
2023-03-02T03:50:03.771Z,79.25
2023-03-02T03:52:31.238Z,79.24
2023-03-02T03:55:05.142Z,79.50
2023-03-02T03:57:32.501Z,79.65
2023-03-02T03:59:59.266Z,79.45
2023-03-02T04:02:26.847Z,79.54
2023-03-02T04:04:53.755Z,79.27
2023-03-02T04:07:20.893Z,79.48
2023-03-02T04:09:47.799Z,79.50
2023-03-02T04:12:15.873Z,79.61
2023-03-02T04:14:47.123Z,79.86
2023-03-02T04:17:14.176Z,79.95
2023-03-02T04:19:45.117Z,80.06
2023-03-02T04:22:11.752Z,80.12
2023-03-02T04:24:38.453Z,80.01
2023-03-02T04:27:05.467Z,80.45
2023-03-02T04:29:34.762Z,80.55
2023-03-02T04:32:04.056Z,80.71
2023-03-02T04:34:33.231Z,80.61
2023-03-02T04:37:00.618Z,80.67
2023-03-02T04:39:27.438Z,80.22
2023-03-02T04:41:54.675Z,80.24
2023-03-02T04:44:21.842Z,80.18
2023-03-02T04:46:50.039Z,80.29
2023-03-02T04:49:19.291Z,80.60
2023-03-02T06:17:52.489Z,81.68
2023-03-02T06:20:19.905Z,81.75
2023-03-02T06:22:46.505Z,81.79
2023-03-02T06:25:16.464Z,81.87
2023-03-02T06:27:43.847Z,81.99
2023-03-02T06:30:14.138Z,81.76
2023-03-02T06:32:41.403Z,81.71
2023-03-02T06:35:09.254Z,81.70
2023-03-02T06:37:36.369Z,81.73
2023-03-02T06:40:11.380Z,81.74
2023-03-02T06:42:39.116Z,81.73
2023-03-02T06:45:06.843Z,81.69
2023-03-02T06:47:34.270Z,81.66
2023-03-02T06:50:01.816Z,81.51
2023-03-02T06:52:28.790Z,81.42
2023-03-02T06:54:55.946Z,81.58
2023-03-02T06:57:23.072Z,81.82
2023-03-02T06:59:49.839Z,81.92
2023-03-02T07:02:16.510Z,81.86
2023-03-02T07:04:43.327Z,81.64
2023-03-02T07:07:10.305Z,81.71
2023-03-02T07:09:37.510Z,81.58
2023-03-02T07:12:04.464Z,81.70
2023-03-02T07:14:31.022Z,81.69
2023-03-02T07:16:59.705Z,81.74
2023-03-02T07:19:26.510Z,81.76
2023-03-02T07:21:53.104Z,82.06
2023-03-02T07:24:19.996Z,81.90
2023-03-02T07:26:46.770Z,81.80
2023-03-02T07:29:13.431Z,81.98
2023-03-02T07:31:40.255Z,82.06
2023-03-02T07:34:07.105Z,82.07
2023-03-02T07:36:33.710Z,82.09
2023-03-02T07:39:02.956Z,82.24
2023-03-02T07:41:29.663Z,82.15
2023-03-02T07:43:56.836Z,82.24
2023-03-02T07:46:23.838Z,82.33
2023-03-02T07:48:51.538Z,82.28
2023-03-02T07:51:18.403Z,82.40
2023-03-02T07:53:45.119Z,82.36
2023-03-02T07:56:12.068Z,82.44
2023-03-02T07:58:38.773Z,82.40
2023-03-02T08:01:05.585Z,82.34
2023-03-02T08:03:32.646Z,82.36
2023-03-02T08:06:07.805Z,82.61
2023-03-02T08:08:35.744Z,82.63
2023-03-02T08:11:11.334Z,82.69
2023-03-02T08:13:38.225Z,82.56
2023-03-02T08:16:06.938Z,82.52
2023-03-02T08:18:34.673Z,82.64
2023-03-02T08:21:02.723Z,82.50
2023-03-02T08:23:29.540Z,82.72
2023-03-02T08:25:56.512Z,82.78
2023-03-02T08:28:24.141Z,82.84
2023-03-02T08:30:55.930Z,82.83
2023-03-02T08:33:23.258Z,82.81
2023-03-02T08:36:02.094Z,82.84
2023-03-02T08:38:29.995Z,82.73
2023-03-02T08:40:57.285Z,82.72
2023-03-02T08:43:25.228Z,82.73
2023-03-02T08:45:59.001Z,82.90
2023-03-02T08:48:27.211Z,82.83
2023-03-02T08:50:57.725Z,82.70
2023-03-02T08:53:25.318Z,82.64
2023-03-02T08:55:52.436Z,82.75
2023-03-02T08:58:19.118Z,82.58
2023-03-02T09:00:46.143Z,82.75
2023-03-02T09:03:13.087Z,82.61
2023-03-02T09:05:39.975Z,82.84
2023-03-02T09:08:07.837Z,82.65
2023-03-02T09:10:35.651Z,82.77
2023-03-02T09:13:02.259Z,82.65
2023-03-02T09:15:29.120Z,82.66
2023-03-02T09:17:56.310Z,82.65
2023-03-02T09:20:23.073Z,82.68
2023-03-02T09:22:50.480Z,82.84
2023-03-02T09:25:18.308Z,82.80
2023-03-02T09:27:46.534Z,82.62
2023-03-02T09:30:14.507Z,82.66
2023-03-02T09:32:41.990Z,82.65
2023-03-02T09:35:08.852Z,82.57
2023-03-02T09:37:38.371Z,82.30
2023-03-02T09:40:16.137Z,82.37
2023-03-02T09:42:49.064Z,82.10
2023-03-02T09:45:31.290Z,82.16
2023-03-02T09:48:25.215Z,82.06
2023-03-02T09:51:06.955Z,81.93
2023-03-02T09:53:51.773Z,81.59
2023-03-02T09:56:20.475Z,81.53
2023-03-02T09:58:53.630Z,81.66
2023-03-02T10:01:42.195Z,81.40
2023-03-02T10:04:21.413Z,81.40
2023-03-02T10:06:55.032Z,81.32
2023-03-02T10:09:21.902Z,81.05
2023-03-02T10:12:00.471Z,80.85
2023-03-02T10:14:34.935Z,80.44
2023-03-02T10:17:21.238Z,80.43
2023-03-02T10:20:01.188Z,80.22
2023-03-02T10:22:42.489Z,79.83
2023-03-02T10:25:37.610Z,79.88
2023-03-02T10:28:28.012Z,79.80
2023-03-02T10:31:09.568Z,79.65
2023-03-02T10:33:45.459Z,79.42
2023-03-02T10:36:23.737Z,79.34
2023-03-02T10:38:52.014Z,79.09
2023-03-02T10:41:28.053Z,79.10
2023-03-02T10:44:03.917Z,79.03
2023-03-02T10:46:42.176Z,78.98
2023-03-02T10:49:24.548Z,78.71
2023-03-02T10:52:05.955Z,78.54
2023-03-02T10:54:34.820Z,78.06
2023-03-02T10:57:05.071Z,77.72
2023-03-02T10:59:43.232Z,77.71
2023-03-02T11:02:15.474Z,77.52
2023-03-02T11:04:42.801Z,77.50
2023-03-02T11:07:19.233Z,77.36
2023-03-02T11:10:18.851Z,77.42
2023-03-02T11:12:48.071Z,77.10
2023-03-02T11:15:29.245Z,77.02
2023-03-02T11:18:06.012Z,77.22
2023-03-02T11:20:43.066Z,77.13
2023-03-02T11:23:19.253Z,77.38
2023-03-02T11:25:56.548Z,77.27
2023-03-02T11:28:45.378Z,77.25
2023-03-02T11:31:22.060Z,77.24
2023-03-02T11:34:15.649Z,77.29
2023-03-02T11:37:11.559Z,76.88
2023-03-02T11:40:00.696Z,76.84
2023-03-02T11:42:30.234Z,76.87
2023-03-02T11:45:01.345Z,77.21
2023-03-02T11:47:31.319Z,77.21
2023-03-02T11:50:04.499Z,77.26
2023-03-02T11:52:36.151Z,77.24
2023-03-02T11:55:13.628Z,77.26
2023-03-02T11:57:48.253Z,77.35
2023-03-02T12:00:31.005Z,77.46
2023-03-02T12:03:17.574Z,77.55
2023-03-02T12:05:57.786Z,77.53
2023-03-02T12:08:24.510Z,77.58
2023-03-02T12:11:08.370Z,77.73
2023-03-02T12:13:40.049Z,77.60
2023-03-02T12:16:34.283Z,77.53
2023-03-02T12:19:25.591Z,77.56
2023-03-02T12:22:01.929Z,77.45
2023-03-02T12:24:34.968Z,77.26
2023-03-02T12:27:04.828Z,77.48
2023-03-02T12:29:44.397Z,77.41
2023-03-02T12:32:26.682Z,77.42
2023-03-02T12:35:08.914Z,77.46
2023-03-02T12:37:46.853Z,77.50
2023-03-02T12:40:33.323Z,77.52
2023-03-02T12:43:23.559Z,77.39
2023-03-02T12:45:59.318Z,77.44
2023-03-02T12:48:50.454Z,77.57
2023-03-02T12:51:25.610Z,77.38
2023-03-02T12:54:29.780Z,77.42
2023-03-02T12:57:06.603Z,77.25
2023-03-02T12:59:35.990Z,77.30
2023-03-02T13:02:28.283Z,77.29
2023-03-02T13:05:01.451Z,77.10
2023-03-02T13:07:36.346Z,77.20
2023-03-02T13:10:29.022Z,77.09
2023-03-02T13:12:57.749Z,77.05
2023-03-02T13:15:25.078Z,77.04
2023-03-02T13:17:55.024Z,77.07
2023-03-02T13:20:24.760Z,76.85
2023-03-02T13:22:51.762Z,76.80
2023-03-02T13:25:26.354Z,76.90
2023-03-02T13:28:10.570Z,76.92
2023-03-02T13:30:43.163Z,76.80
2023-03-02T13:33:23.152Z,76.77
2023-03-02T13:35:50.266Z,76.57
2023-03-02T13:38:19.222Z,76.61
2023-03-02T13:40:51.235Z,76.74
2023-03-02T13:43:38.931Z,76.61
2023-03-02T13:46:28.316Z,76.51
2023-03-02T13:49:10.131Z,76.07
2023-03-02T13:51:41.099Z,75.97
2023-03-02T13:54:25.220Z,75.94
2023-03-02T13:56:53.809Z,76.06
2023-03-02T13:59:21.779Z,75.63
2023-03-02T14:01:49.172Z,75.61
2023-03-02T14:04:21.104Z,75.61
2023-03-02T14:06:52.088Z,75.74
2023-03-02T14:09:19.520Z,75.70
2023-03-02T14:11:52.786Z,75.63
2023-03-02T14:14:23.721Z,75.94
2023-03-02T14:16:50.656Z,75.97
2023-03-02T14:19:18.069Z,75.83
2023-03-02T14:21:45.837Z,75.60
2023-03-02T14:24:12.404Z,75.46
2023-03-02T14:26:49.801Z,75.39
2023-03-02T14:29:24.668Z,75.25
2023-03-02T14:31:52.780Z,75.28
2023-03-02T14:34:19.495Z,75.14
2023-03-02T14:36:50.492Z,75.19
2023-03-02T14:39:37.219Z,75.17
2023-03-02T14:42:06.432Z,75.33
2023-03-02T14:44:33.116Z,75.33
2023-03-02T14:46:59.952Z,75.34
2023-03-02T14:49:26.969Z,75.13
2023-03-02T14:52:33.685Z,75.10
2023-03-02T14:55:05.964Z,75.28
2023-03-02T14:57:38.124Z,75.08
2023-03-02T15:00:06.879Z,75.28
2023-03-02T15:02:34.493Z,75.20
2023-03-02T15:05:01.360Z,75.39
2023-03-02T15:07:28.450Z,75.28
2023-03-02T15:09:56.910Z,75.34
2023-03-02T15:12:24.392Z,75.06
2023-03-02T15:14:51.202Z,75.15
2023-03-02T15:17:18.982Z,75.35
2023-03-02T15:19:46.538Z,75.18
2023-03-02T15:22:13.409Z,75.36
2023-03-02T15:24:40.097Z,75.23
2023-03-02T15:27:07.184Z,75.24
2023-03-02T15:29:34.245Z,75.37
2023-03-02T15:32:00.926Z,75.20
2023-03-02T15:34:28.684Z,75.18
2023-03-02T15:36:55.413Z,75.32
2023-03-02T15:39:22.243Z,75.43
2023-03-02T15:41:49.354Z,75.36
2023-03-02T15:44:21.367Z,75.32
2023-03-02T15:46:56.597Z,75.37
2023-03-02T15:49:26.798Z,75.39
2023-03-02T15:51:57.646Z,75.37
2023-03-02T15:54:26.238Z,75.45
2023-03-02T15:56:53.084Z,75.29
2023-03-02T15:59:21.667Z,75.10
2023-03-02T16:01:49.296Z,75.19
2023-03-02T16:04:16.315Z,75.27
2023-03-02T16:06:44.123Z,75.27
2023-03-02T16:09:11.126Z,75.37
2023-03-02T16:11:38.004Z,75.18
2023-03-02T16:14:05.258Z,75.14
2023-03-02T16:16:32.480Z,75.01
2023-03-02T16:18:59.339Z,74.61
2023-03-02T16:21:28.236Z,74.53
2023-03-02T16:24:02.356Z,74.66
2023-03-02T16:26:29.157Z,74.52
2023-03-02T16:28:56.309Z,74.43
2023-03-02T16:31:26.065Z,74.40
2023-03-02T16:33:55.531Z,74.23
2023-03-02T16:36:22.514Z,74.31
2023-03-02T16:38:49.404Z,74.29
2023-03-02T16:41:21.714Z,74.03
2023-03-02T16:43:54.436Z,73.91
2023-03-02T16:46:23.226Z,74.01
2023-03-02T16:48:50.653Z,73.91
2023-03-02T16:51:19.115Z,73.83
2023-03-02T16:53:46.658Z,73.92
2023-03-02T16:56:14.957Z,73.88
2023-03-02T16:58:42.374Z,73.90
2023-03-02T17:01:15.892Z,73.84
2023-03-02T17:03:43.790Z,73.85
2023-03-02T17:06:12.898Z,73.93
2023-03-02T17:08:40.249Z,73.65
2023-03-02T17:11:10.118Z,73.67
2023-03-02T17:13:36.974Z,73.65
2023-03-02T17:16:04.142Z,73.83
2023-03-02T17:18:33.209Z,73.67
2023-03-02T17:21:00.437Z,73.87
2023-03-02T17:23:27.792Z,73.81
2023-03-02T17:25:55.483Z,73.69
2023-03-02T17:28:22.624Z,73.88
2023-03-02T17:30:49.560Z,73.79
2023-03-02T17:33:17.607Z,73.85
2023-03-02T17:35:45.600Z,73.82
2023-03-02T17:38:13.978Z,73.89
2023-03-02T17:40:44.130Z,74.07
2023-03-02T17:43:12.166Z,74.09
2023-03-02T17:45:39.258Z,74.02
2023-03-02T17:48:06.535Z,74.40
2023-03-02T17:50:34.142Z,74.62
2023-03-02T17:53:02.493Z,74.68
2023-03-02T17:55:33.107Z,74.45
2023-03-02T17:58:04.199Z,74.86
2023-03-02T18:00:30.994Z,74.96
2023-03-02T18:02:57.692Z,75.04
2023-03-02T18:05:25.220Z,75.26
2023-03-02T18:07:53.919Z,75.28
2023-03-02T18:10:20.585Z,75.25
2023-03-02T18:12:48.813Z,75.30
2023-03-02T18:15:16.455Z,75.48
2023-03-02T18:17:43.259Z,75.62
2023-03-02T18:20:10.699Z,75.67
2023-03-02T18:22:37.595Z,75.53
2023-03-02T18:25:05.289Z,75.54
2023-03-02T18:27:32.332Z,75.56
2023-03-02T18:29:59.029Z,75.85
2023-03-02T18:32:25.910Z,75.76
2023-03-02T18:34:52.972Z,76.12
2023-03-02T18:37:19.913Z,76.17
2023-03-02T18:39:47.380Z,76.27
2023-03-02T18:42:14.383Z,76.14
2023-03-02T18:44:41.128Z,76.28
2023-03-02T18:47:09.432Z,76.12
2023-03-02T18:49:37.818Z,76.23
2023-03-02T18:52:06.361Z,76.20
2023-03-02T18:54:33.862Z,76.30
2023-03-02T18:57:02.068Z,76.35
2023-03-02T18:59:29.323Z,75.85
2023-03-02T19:01:56.902Z,76.08
2023-03-02T19:04:26.607Z,76.18
2023-03-02T19:06:55.947Z,76.35
2023-03-02T19:09:23.201Z,76.39
2023-03-02T19:11:50.702Z,76.09
2023-03-02T19:14:17.706Z,76.03
2023-03-02T19:16:45.065Z,76.15
2023-03-02T19:19:12.112Z,76.10
2023-03-02T19:21:39.350Z,76.37
2023-03-02T19:24:07.676Z,76.46
2023-03-02T19:26:35.705Z,76.46
2023-03-02T19:29:03.137Z,76.66
2023-03-02T19:31:32.714Z,76.59
2023-03-02T19:33:59.876Z,76.59
2023-03-02T19:36:27.271Z,76.56
2023-03-02T19:38:53.957Z,76.65
2023-03-02T19:41:21.353Z,76.48
2023-03-02T19:43:48.491Z,76.37
2023-03-02T19:46:16.649Z,76.52
2023-03-02T19:48:44.117Z,76.47
2023-03-02T19:51:31.926Z,76.34
2023-03-02T19:54:04.160Z,76.33
2023-03-02T19:56:37.369Z,76.35
2023-03-02T19:59:04.600Z,76.55
2023-03-02T20:01:31.362Z,76.44
2023-03-02T20:03:59.544Z,76.46
2023-03-02T20:06:30.346Z,76.41
2023-03-02T20:09:00.942Z,76.37
2023-03-02T20:11:37.665Z,76.44
2023-03-02T20:14:04.676Z,76.52
2023-03-02T20:16:36.710Z,76.52
2023-03-02T20:19:22.023Z,76.62
2023-03-02T20:21:50.340Z,76.49
2023-03-02T20:24:17.290Z,76.71
2023-03-02T20:27:14.803Z,76.25
2023-03-02T20:29:44.817Z,76.38
2023-03-02T20:32:16.638Z,76.43
2023-03-02T20:34:52.236Z,76.53
2023-03-02T20:40:06.378Z,76.49
2023-03-02T20:42:59.798Z,76.32
2023-03-02T20:49:32.121Z,76.22
2023-03-02T20:52:36.588Z,76.30
2023-03-02T20:55:09.736Z,76.23
2023-03-02T20:57:37.085Z,76.22
2023-03-02T21:00:06.748Z,76.19
2023-03-02T21:02:33.690Z,76.17
2023-03-02T21:09:01.014Z,76.24
2023-03-02T21:11:46.764Z,76.12
2023-03-02T21:14:43.178Z,76.10
2023-03-02T21:17:09.813Z,76.06
2023-03-02T21:19:36.982Z,76.06
2023-03-02T21:22:04.747Z,76.20
2023-03-02T21:24:31.447Z,76.43
2023-03-02T21:27:00.777Z,76.38
2023-03-02T21:29:27.890Z,76.42
2023-03-02T21:31:55.309Z,76.42
2023-03-02T21:34:22.743Z,76.42
2023-03-02T21:37:08.327Z,76.66
2023-03-02T21:42:42.733Z,76.60
2023-03-02T21:45:11.794Z,76.31
2023-03-02T21:47:41.360Z,76.48
2023-03-02T21:53:07.308Z,76.84
2023-03-02T21:55:35.220Z,76.67
2023-03-02T21:58:03.997Z,76.68
2023-03-02T22:00:34.442Z,76.76
2023-03-02T22:03:02.918Z,76.67
2023-03-02T22:09:11.429Z,76.88
2023-03-02T22:11:41.642Z,76.90
2023-03-02T22:14:17.996Z,77.08
2023-03-02T22:20:55.742Z,77.15
2023-03-02T22:23:26.450Z,77.17
2023-03-02T22:26:00.497Z,77.28
2023-03-02T22:28:58.240Z,77.60
2023-03-02T22:31:25.591Z,77.63
2023-03-02T22:33:53.309Z,77.71
2023-03-02T22:36:42.094Z,77.51
2023-03-02T22:46:28.502Z,77.68
2023-03-02T22:48:58.336Z,77.82
2023-03-02T22:51:48.077Z,77.79
2023-03-02T22:54:37.815Z,77.66
2023-03-02T22:57:21.414Z,77.85
2023-03-02T22:59:48.754Z,77.75
2023-03-02T23:02:20.474Z,77.84
2023-03-02T23:04:48.272Z,77.70
2023-03-02T23:07:21.001Z,77.57
2023-03-02T23:09:49.723Z,77.76
2023-03-02T23:12:27.674Z,77.64
2023-03-02T23:14:56.680Z,77.76
2023-03-02T23:17:38.152Z,77.58
2023-03-02T23:20:09.420Z,77.78
2023-03-02T23:22:38.384Z,77.74
2023-03-02T23:25:07.345Z,77.58
2023-03-02T23:27:34.824Z,77.88
2023-03-02T23:30:02.312Z,78.36
2023-03-02T23:32:29.178Z,78.48
2023-03-02T23:34:55.915Z,78.50
2023-03-02T23:37:22.837Z,78.68
2023-03-02T23:39:49.951Z,79.04
2023-03-02T23:42:16.737Z,79.09
2023-03-02T23:44:44.114Z,79.01
2023-03-02T23:47:11.069Z,79.09
2023-03-02T23:49:38.213Z,79.21
2023-03-02T23:52:05.515Z,79.22
2023-03-02T23:54:34.220Z,79.28
2023-03-02T23:57:01.015Z,79.57
2023-03-02T23:59:27.660Z,79.58
